Time;durP1;ratioP1;P1;durP2;ratioP2;P2;SDS_P1;SDS_P2;PMS_P1;PMS_P2;Temp;Humidity;BMP_temperature;BMP_pressure;BME280_temperature;BME280_humidity;BME280_pressure;Samples;Min_cycle;Max_cycle;Signal;HPM_P1;HPM_P2
2021/03/09 00:01:42;;;;;;;31.13;28.88;;;0.70;81.90;;;;;;5096305;28;20284;-77
2021/03/09 00:04:08;;;;;;;33.40;30.90;;;0.70;82.00;;;;;;5096026;28;20219;-77
2021/03/09 00:06:34;;;;;;;32.08;29.77;;;0.60;82.10;;;;;;5096020;28;20199;-76
2021/03/09 00:09:01;;;;;;;32.67;30.33;;;0.70;82.00;;;;;;5096108;28;20267;-76
2021/03/09 00:11:28;;;;;;;31.30;29.00;;;0.70;81.70;;;;;;5096235;28;20292;-77
2021/03/09 00:13:54;;;;;;;31.90;29.58;;;0.70;81.60;;;;;;5096163;28;20192;-76
2021/03/09 00:16:21;;;;;;;31.50;29.30;;;0.60;81.90;;;;;;5095922;28;20199;-76
2021/03/09 00:18:47;;;;;;;31.83;29.63;;;0.60;82.00;;;;;;5096006;28;20219;-76
2021/03/09 00:21:13;;;;;;;32.75;30.27;;;0.50;82.00;;;;;;5096077;28;20203;-76
2021/03/09 00:23:40;;;;;;;32.97;30.50;;;0.50;82.00;;;;;;5095995;28;20581;-76
2021/03/09 00:26:06;;;;;;;32.35;29.60;;;0.50;82.30;;;;;;5095733;28;20238;-76
2021/03/09 00:28:33;;;;;;;33.53;30.80;;;0.60;82.00;;;;;;5095857;28;20240;-76
2021/03/09 00:31:00;;;;;;;30.83;28.42;;;0.60;81.70;;;;;;5095816;28;20199;-76
2021/03/09 00:33:26;;;;;;;31.17;28.88;;;0.50;81.90;;;;;;5095714;28;20661;-76
2021/03/09 00:35:52;;;;;;;33.78;31.17;;;0.50;82.10;;;;;;5095435;28;20204;-77
2021/03/09 00:38:19;;;;;;;31.25;29.05;;;0.50;82.20;;;;;;5095631;28;20306;-76
2021/03/09 00:40:45;;;;;;;31.70;29.50;;;0.50;82.30;;;;;;5095847;28;20252;-76
2021/03/09 00:43:11;;;;;;;31.98;29.45;;;0.50;82.20;;;;;;5095262;28;20229;-76
2021/03/09 00:45:39;;;;;;;32.10;29.70;;;0.50;82.00;;;;;;5095488;28;20560;-76
2021/03/09 00:48:06;;;;;;;32.45;29.95;;;0.40;82.50;;;;;;5095438;28;20191;-76
2021/03/09 00:50:32;;;;;;;31.33;28.92;;;0.30;83.30;;;;;;5095568;28;20195;-76
2021/03/09 00:52:58;;;;;;;32.10;28.52;;;0.30;88.50;;;;;;5095586;28;20219;-76
2021/03/09 00:55:25;;;;;;;30.25;27.85;;;0.30;86.30;;;;;;5095826;28;20653;-76
2021/03/09 00:57:55;;;;;;;31.25;28.92;;;0.30;86.50;;;;;;5094366;28;20199;-76
2021/03/09 01:00:22;;;;;;;30.42;28.33;;;0.30;85.30;;;;;;5095372;28;20195;-76
2021/03/09 01:02:49;;;;;;;31.17;28.67;;;0.30;84.60;;;;;;5094930;28;20215;-77
2021/03/09 01:05:16;;;;;;;31.13;28.73;;;0.30;84.30;;;;;;5095244;28;20195;-76
2021/03/09 01:07:43;;;;;;;32.28;29.63;;;0.40;83.70;;;;;;5095117;28;20292;-76
2021/03/09 01:10:10;;;;;;;31.05;28.85;;;0.40;83.30;;;;;;5095114;28;20219;-76
2021/03/09 01:12:36;;;;;;;31.30;28.90;;;0.40;83.10;;;;;;5095038;28;20728;-76
2021/03/09 01:15:04;;;;;;;31.33;29.00;;;0.40;82.90;;;;;;5095158;28;20199;-76
2021/03/09 01:17:30;;;;;;;31.38;28.88;;;0.40;82.60;;;;;;5094659;28;20683;-76
2021/03/09 01:19:57;;;;;;;32.67;29.98;;;0.30;82.80;;;;;;5094866;28;20550;-76
2021/03/09 01:22:24;;;;;;;32.28;29.80;;;0.20;83.10;;;;;;5094755;28;20216;-76
2021/03/09 01:24:50;;;;;;;30.75;28.35;;;0.20;83.60;;;;;;5094855;28;20289;-76
2021/03/09 01:27:17;;;;;;;33.55;31.02;;;0.10;83.70;;;;;;5094635;28;20206;-76
2021/03/09 01:29:43;;;;;;;32.40;30.00;;;0.10;84.10;;;;;;5094688;28;20219;-76
2021/03/09 01:32:09;;;;;;;32.35;29.95;;;0.10;84.00;;;;;;5094476;28;20202;-76
2021/03/09 01:34:36;;;;;;;33.08;30.45;;;0.30;83.20;;;;;;5094702;28;20202;-76
2021/03/09 01:37:04;;;;;;;31.92;29.35;;;0.30;82.90;;;;;;5094382;28;20688;-77
2021/03/09 01:39:31;;;;;;;33.05;30.55;;;0.20;82.90;;;;;;5094402;28;20230;-76
2021/03/09 01:41:57;;;;;;;31.83;29.20;;;0.20;83.10;;;;;;5094227;28;20225;-76
2021/03/09 01:44:24;;;;;;;31.77;29.27;;;0.10;83.30;;;;;;5094314;28;20219;-76
2021/03/09 01:46:51;;;;;;;32.60;30.10;;;0.20;83.20;;;;;;5094135;28;20203;-76
2021/03/09 01:49:18;;;;;;;31.58;29.15;;;0.10;83.10;;;;;;5094076;28;20765;-76
2021/03/09 01:51:46;;;;;;;31.83;29.42;;;0.10;83.30;;;;;;5094337;28;20233;-76
2021/03/09 01:54:14;;;;;;;30.83;28.58;;;0.10;83.30;;;;;;5094858;28;20197;-76
2021/03/09 01:56:41;;;;;;;31.20;28.77;;;0.10;83.20;;;;;;5094037;28;20217;-76
2021/03/09 01:59:08;;;;;;;31.83;29.10;;;0.00;83.60;;;;;;5094176;28;20225;-76
2021/03/09 02:01:35;;;;;;;33.15;30.45;;;0.10;83.60;;;;;;5094068;28;20195;-76
2021/03/09 02:04:02;;;;;;;31.85;29.48;;;0.10;83.50;;;;;;5094100;28;20211;-76
2021/03/09 02:06:29;;;;;;;31.98;29.45;;;0.10;83.50;;;;;;5094608;28;20652;-76
2021/03/09 02:08:56;;;;;;;32.83;30.13;;;0.10;83.30;;;;;;5094130;28;20802;-76
2021/03/09 02:11:36;;;;;;;32.42;29.92;;;0.10;83.20;;;;;;5093995;28;20202;-76
2021/03/09 02:14:09;;;;;;;32.08;29.75;;;0.10;83.30;;;;;;5093916;28;20221;-76
2021/03/09 02:16:43;;;;;;;31.75;29.35;;;-0.10;83.80;;;;;;5093859;28;20218;-76
2021/03/09 02:19:46;;;;;;;31.65;29.27;;;-0.10;84.10;;;;;;5094739;28;20302;-76
2021/03/09 02:22:31;;;;;;;32.55;30.25;;;0.00;83.70;;;;;;5094510;28;20203;-76
2021/03/09 02:25:17;;;;;;;33.60;31.10;;;-0.10;84.10;;;;;;5093900;28;20294;-76
2021/03/09 02:28:10;;;;;;;32.03;29.50;;;-0.10;84.20;;;;;;5094318;28;20254;-76
2021/03/09 02:30:40;;;;;;;31.70;29.40;;;-0.10;84.20;;;;;;5093574;28;20713;-76
2021/03/09 02:33:12;;;;;;;31.58;29.08;;;-0.10;84.20;;;;;;5093394;28;20199;-76
2021/03/09 02:35:45;;;;;;;31.88;29.40;;;0.00;83.70;;;;;;5093355;28;20730;-75
2021/03/09 02:38:16;;;;;;;33.92;31.23;;;-0.10;83.80;;;;;;5093360;28;20726;-76
2021/03/09 02:40:43;;;;;;;31.60;29.20;;;-0.20;84.30;;;;;;5093949;28;20199;-77
2021/03/09 02:43:15;;;;;;;32.83;30.13;;;-0.20;84.50;;;;;;5092963;28;20238;-76
2021/03/09 02:45:44;;;;;;;31.58;29.13;;;-0.20;84.50;;;;;;5093279;28;20210;-75
2021/03/09 02:48:12;;;;;;;32.53;30.02;;;-0.10;84.20;;;;;;5093024;28;20195;-77
2021/03/09 02:50:40;;;;;;;32.13;29.77;;;-0.20;84.20;;;;;;5093218;28;20195;-77
2021/03/09 02:53:08;;;;;;;30.83;28.52;;;-0.30;84.40;;;;;;5093181;28;20191;-76
2021/03/09 02:55:37;;;;;;;31.40;28.77;;;-0.30;84.40;;;;;;5093067;28;20564;-76
2021/03/09 02:58:07;;;;;;;33.28;30.67;;;-0.20;84.40;;;;;;5093085;28;20282;-76
2021/03/09 03:00:34;;;;;;;32.22;29.77;;;-0.30;84.30;;;;;;5093199;28;20202;-76
2021/03/09 03:03:05;;;;;;;31.92;29.52;;;-0.30;84.50;;;;;;5092779;28;20215;-76
2021/03/09 03:05:32;;;;;;;32.78;30.38;;;-0.30;84.70;;;;;;5092873;28;20209;-76
2021/03/09 03:07:59;;;;;;;32.95;30.50;;;-0.30;84.50;;;;;;5092811;28;20225;-76
2021/03/09 03:10:27;;;;;;;31.98;29.48;;;-0.30;84.40;;;;;;5092864;28;20237;-76
2021/03/09 03:12:53;;;;;;;33.28;30.50;;;-0.30;84.50;;;;;;5092974;28;20280;-76
2021/03/09 03:15:21;;;;;;;32.28;29.67;;;-0.30;84.50;;;;;;5092867;28;20195;-76
2021/03/09 03:17:47;;;;;;;32.38;29.98;;;-0.30;84.40;;;;;;5092650;28;20203;-76
2021/03/09 03:20:18;;;;;;;32.80;30.25;;;-0.30;84.40;;;;;;5092185;28;20215;-76
2021/03/09 03:22:47;;;;;;;32.92;30.38;;;-0.40;84.80;;;;;;5092830;28;20226;-76
2021/03/09 03:25:15;;;;;;;32.92;30.52;;;-0.30;84.90;;;;;;5092855;28;20656;-76
2021/03/09 03:27:43;;;;;;;33.15;30.45;;;-0.30;84.70;;;;;;5092515;28;20191;-76
2021/03/09 03:30:12;;;;;;;35.08;31.85;;;-0.30;84.30;;;;;;5092718;28;20218;-76
2021/03/09 03:32:39;;;;;;;31.05;28.85;;;-0.40;84.40;;;;;;5092661;28;20198;-76
2021/03/09 03:35:08;;;;;;;34.25;31.60;;;-0.50;84.90;;;;;;5092617;28;20203;-76
2021/03/09 03:37:36;;;;;;;33.95;30.73;;;-0.50;85.10;;;;;;5092542;28;20195;-77
2021/03/09 03:40:06;;;;;;;32.97;30.33;;;-0.50;87.50;;;;;;5092426;28;20219;-76
2021/03/09 03:42:33;;;;;;;33.22;30.35;;;-0.50;87.10;;;;;;5092285;28;20195;-76
2021/03/09 03:45:00;;;;;;;33.50;30.80;;;-0.50;86.40;;;;;;5092586;28;20199;-76
2021/03/09 03:47:26;;;;;;;33.67;31.25;;;-0.50;86.40;;;;;;5092058;28;20673;-77
2021/03/09 03:49:54;;;;;;;33.38;30.80;;;-0.40;85.80;;;;;;5092514;28;20555;-76
2021/03/09 03:52:29;;;;;;;32.28;29.88;;;-0.30;85.20;;;;;;5092500;28;20195;-76
2021/03/09 03:55:05;;;;;;;33.65;30.75;;;-0.40;84.90;;;;;;5092422;28;20199;-76
2021/03/09 03:57:37;;;;;;;32.92;30.35;;;-0.50;85.10;;;;;;5092302;28;20661;-76
2021/03/09 04:00:07;;;;;;;33.85;31.00;;;-0.50;85.20;;;;;;5092258;28;20702;-77
2021/03/09 04:02:36;;;;;;;33.67;31.17;;;-0.50;85.30;;;;;;5092471;28;20221;-76
2021/03/09 04:05:06;;;;;;;33.60;31.00;;;-0.60;85.70;;;;;;5092302;28;20215;-76
2021/03/09 04:07:33;;;;;;;32.95;30.30;;;-0.60;87.10;;;;;;5092158;28;20207;-76
2021/03/09 04:10:01;;;;;;;32.35;29.83;;;-0.50;86.50;;;;;;5092288;28;20222;-76
2021/03/09 04:12:29;;;;;;;34.45;31.75;;;-0.50;85.80;;;;;;5092224;28;20278;-77
2021/03/09 04:14:58;;;;;;;33.78;31.23;;;-0.50;85.60;;;;;;5092166;28;20598;-76
2021/03/09 04:17:25;;;;;;;32.08;29.67;;;-0.50;85.30;;;;;;5092039;28;20739;-76
2021/03/09 04:19:54;;;;;;;32.47;29.98;;;-0.50;85.20;;;;;;5092223;28;20272;-76
2021/03/09 04:22:20;;;;;;;35.03;31.83;;;-0.50;85.20;;;;;;5092282;28;20200;-76
2021/03/09 04:24:48;;;;;;;34.92;32.33;;;-0.50;85.10;;;;;;5092092;28;20215;-76
2021/03/09 04:27:21;;;;;;;35.10;32.10;;;-0.50;85.00;;;;;;5091797;28;20195;-76
2021/03/09 04:29:50;;;;;;;35.30;32.42;;;-0.50;84.90;;;;;;5092120;28;20273;-76
2021/03/09 04:32:16;;;;;;;35.20;32.50;;;-0.40;84.70;;;;;;5094826;28;20196;-76
2021/03/09 04:34:43;;;;;;;34.70;32.20;;;-0.50;84.40;;;;;;5096014;28;20195;-76
2021/03/09 04:37:10;;;;;;;36.03;33.40;;;-0.50;84.70;;;;;;5095474;28;20214;-77
2021/03/09 04:39:37;;;;;;;34.22;31.50;;;-0.60;85.00;;;;;;5095573;28;20219;-76
2021/03/09 04:42:04;;;;;;;34.35;31.60;;;-0.60;85.20;;;;;;5095362;28;20191;-77
2021/03/09 04:44:31;;;;;;;34.80;32.00;;;-0.60;85.10;;;;;;5095504;27;20225;-76
2021/03/09 04:46:58;;;;;;;37.35;34.30;;;-0.60;84.90;;;;;;5095378;28;20713;-76
2021/03/09 04:49:24;;;;;;;33.85;31.20;;;-0.60;85.10;;;;;;5095194;28;20215;-76
2021/03/09 04:51:51;;;;;;;32.95;30.45;;;-0.70;85.20;;;;;;5095483;28;20203;-78
2021/03/09 04:54:17;;;;;;;36.72;33.63;;;-0.60;85.20;;;;;;5095591;28;20252;-76
2021/03/09 04:56:44;;;;;;;37.63;34.80;;;-0.60;85.10;;;;;;5095201;28;20195;-76
2021/03/09 04:59:10;;;;;;;35.40;32.30;;;-0.60;85.00;;;;;;5095236;28;20305;-76
2021/03/09 05:01:38;;;;;;;35.47;32.35;;;-0.70;86.60;;;;;;5095249;28;20660;-76
2021/03/09 05:04:04;;;;;;;34.47;31.70;;;-0.70;86.30;;;;;;5095135;28;20221;-76
2021/03/09 05:06:31;;;;;;;34.55;31.75;;;-0.70;86.10;;;;;;5095041;28;20225;-76
2021/03/09 05:08:57;;;;;;;34.03;31.02;;;-0.70;85.90;;;;;;5095074;28;20219;-76
2021/03/09 05:11:23;;;;;;;35.60;32.80;;;-0.60;85.40;;;;;;5095058;28;20191;-77
2021/03/09 05:13:50;;;;;;;34.88;32.13;;;-0.70;85.10;;;;;;5095157;28;20204;-76
2021/03/09 05:16:16;;;;;;;35.17;32.65;;;-0.70;85.60;;;;;;5094941;28;20223;-76
2021/03/09 05:18:43;;;;;;;35.03;32.30;;;-0.70;85.50;;;;;;5094912;28;20791;-76
2021/03/09 05:21:10;;;;;;;35.88;33.15;;;-0.70;85.70;;;;;;5094861;28;20230;-76
2021/03/09 05:23:36;;;;;;;37.92;34.88;;;-0.70;85.70;;;;;;5094752;28;20223;-76
2021/03/09 05:26:02;;;;;;;38.30;35.13;;;-0.70;85.70;;;;;;5094901;28;20289;-78
2021/03/09 05:28:29;;;;;;;36.63;33.38;;;-0.70;85.40;;;;;;5094675;28;20221;-76
2021/03/09 05:30:55;;;;;;;36.20;33.30;;;-0.70;85.50;;;;;;5094708;28;20653;-76
2021/03/09 05:33:21;;;;;;;35.65;32.58;;;-0.70;85.50;;;;;;5094668;28;20191;-76
2021/03/09 05:35:48;;;;;;;35.50;32.45;;;-0.80;85.70;;;;;;5094482;28;20196;-76
2021/03/09 05:38:15;;;;;;;37.50;34.45;;;-0.80;86.10;;;;;;5094421;28;20306;-76
2021/03/09 05:40:41;;;;;;;38.20;35.10;;;-0.90;86.40;;;;;;5094589;28;20247;-76
2021/03/09 05:43:08;;;;;;;35.47;32.50;;;-0.80;86.20;;;;;;5093588;28;20215;-76
2021/03/09 05:45:34;;;;;;;36.42;33.65;;;-0.80;86.00;;;;;;5094319;28;20568;-77
2021/03/09 05:48:01;;;;;;;35.83;33.03;;;-0.80;85.90;;;;;;5094169;28;20546;-76
2021/03/09 05:50:30;;;;;;;33.45;30.70;;;-0.70;85.70;;;;;;5094324;28;20290;-76
2021/03/09 05:52:58;;;;;;;36.70;33.63;;;-0.60;85.40;;;;;;5094341;28;20531;-76
2021/03/09 05:55:24;;;;;;;36.20;33.10;;;-0.70;85.60;;;;;;5094257;28;20244;-76
2021/03/09 05:57:50;;;;;;;36.63;33.42;;;-0.60;85.60;;;;;;5094351;28;20202;-76
2021/03/09 06:00:18;;;;;;;34.20;31.45;;;-0.60;85.40;;;;;;5094108;28;20215;-76
2021/03/09 06:02:44;;;;;;;35.97;32.88;;;-0.60;85.20;;;;;;5093905;28;20195;-77
2021/03/09 06:05:12;;;;;;;36.08;33.35;;;-0.50;84.80;;;;;;5093997;28;20230;-76
2021/03/09 06:07:39;;;;;;;35.78;33.10;;;-0.50;84.70;;;;;;5093891;28;20285;-76
2021/03/09 06:10:19;;;;;;;33.55;30.77;;;-0.60;85.30;;;;;;5093829;28;20222;-76
2021/03/09 06:12:46;;;;;;;35.33;32.58;;;-0.50;85.50;;;;;;5094024;28;20203;-76
2021/03/09 06:15:12;;;;;;;35.33;32.58;;;-0.50;85.30;;;;;;5094622;28;20199;-76
2021/03/09 06:17:40;;;;;;;35.47;32.58;;;-0.50;85.40;;;;;;5094338;28;20664;-76
2021/03/09 06:20:08;;;;;;;38.63;35.03;;;-0.40;85.10;;;;;;5093834;28;20219;-77
2021/03/09 06:22:40;;;;;;;36.60;33.40;;;-0.30;84.80;;;;;;5093765;28;20191;-77
2021/03/09 06:25:09;;;;;;;37.40;34.13;;;-0.30;84.50;;;;;;5093687;28;20207;-76
2021/03/09 06:27:35;;;;;;;37.10;33.85;;;-0.30;84.50;;;;;;5093452;28;20198;-77
2021/03/09 06:30:03;;;;;;;36.63;33.53;;;-0.40;85.00;;;;;;5093342;28;20270;-77
2021/03/09 06:32:40;;;;;;;38.60;35.00;;;-0.30;85.20;;;;;;5093742;28;20196;-77
2021/03/09 06:35:24;;;;;;;40.20;36.20;;;-0.30;85.50;;;;;;5093589;28;20561;-77
2021/03/09 06:37:51;;;;;;;38.00;34.70;;;-0.20;85.30;;;;;;5093409;28;20286;-78
2021/03/09 06:40:18;;;;;;;36.65;33.45;;;-0.10;85.10;;;;;;5093643;28;20219;-77
2021/03/09 06:42:44;;;;;;;36.17;33.25;;;-0.10;84.90;;;;;;5093249;28;20207;-77
2021/03/09 06:45:13;;;;;;;37.65;34.55;;;0.00;84.60;;;;;;5093389;28;20195;-76
2021/03/09 06:47:41;;;;;;;39.00;35.70;;;0.20;83.80;;;;;;5093052;28;20196;-77
2021/03/09 06:50:11;;;;;;;37.72;34.90;;;0.20;83.60;;;;;;5093313;28;20229;-76
2021/03/09 06:52:38;;;;;;;38.47;35.15;;;0.10;83.70;;;;;;5093295;28;20195;-77
2021/03/09 06:55:06;;;;;;;38.65;34.90;;;0.30;83.80;;;;;;5092368;28;20199;-77
2021/03/09 06:57:34;;;;;;;37.95;34.53;;;0.40;83.40;;;;;;5093350;28;20203;-77
2021/03/09 07:00:00;;;;;;;37.50;34.38;;;0.50;83.10;;;;;;5093518;28;20292;-77
2021/03/09 07:02:27;;;;;;;39.85;36.45;;;0.60;82.80;;;;;;5092963;28;20251;-77
2021/03/09 07:05:01;;;;;;;39.20;35.70;;;0.70;82.50;;;;;;5092870;28;20275;-77
2021/03/09 07:07:32;;;;;;;38.53;35.00;;;0.70;82.50;;;;;;5092836;28;20630;-77
2021/03/09 07:10:00;;;;;;;37.08;34.10;;;0.80;82.20;;;;;;5092875;28;20215;-77
2021/03/09 07:12:28;;;;;;;38.40;35.15;;;0.90;82.00;;;;;;5092867;28;20278;-77
2021/03/09 07:14:56;;;;;;;39.15;35.97;;;1.00;81.90;;;;;;5092848;28;20188;-77
2021/03/09 07:17:26;;;;;;;40.35;36.83;;;1.20;81.30;;;;;;5092720;28;20195;-77
2021/03/09 07:19:54;;;;;;;39.47;36.22;;;1.30;80.60;;;;;;5092624;28;20306;-77
2021/03/09 07:22:22;;;;;;;38.60;35.30;;;1.30;80.70;;;;;;5092630;28;20247;-77
2021/03/09 07:25:04;;;;;;;40.55;37.13;;;1.30;80.70;;;;;;5092656;28;20223;-77
2021/03/09 07:27:41;;;;;;;39.88;36.60;;;1.30;80.70;;;;;;5092584;28;20286;-77
2021/03/09 07:30:10;;;;;;;36.50;33.65;;;1.40;81.00;;;;;;5092697;28;20306;-77
2021/03/09 07:32:39;;;;;;;37.72;34.83;;;1.60;80.60;;;;;;5092734;28;20291;-77
2021/03/09 07:35:07;;;;;;;38.42;34.97;;;1.80;79.90;;;;;;5092702;28;20195;-77
2021/03/09 07:37:36;;;;;;;38.25;35.15;;;2.00;79.20;;;;;;5092385;28;20681;-77
2021/03/09 07:40:03;;;;;;;41.25;37.88;;;2.10;79.10;;;;;;5092518;28;20219;-78
2021/03/09 07:42:29;;;;;;;39.28;35.83;;;2.20;78.90;;;;;;5092278;28;20194;-77
2021/03/09 07:44:56;;;;;;;36.90;33.83;;;2.40;78.40;;;;;;5092457;28;20588;-77
2021/03/09 07:47:24;;;;;;;39.17;36.15;;;2.60;77.80;;;;;;5092176;28;20205;-78
2021/03/09 07:49:52;;;;;;;40.08;36.22;;;2.70;77.80;;;;;;5092553;28;20215;-77
2021/03/09 07:52:19;;;;;;;38.47;35.38;;;2.80;77.20;;;;;;5092471;28;20206;-77
2021/03/09 07:55:17;;;;;;;39.20;36.10;;;2.90;76.90;;;;;;5092497;28;20195;-77
2021/03/09 07:57:44;;;;;;;37.45;34.40;;;3.10;76.80;;;;;;5086348;28;20203;-77
2021/03/09 08:00:12;;;;;;;36.97;33.55;;;3.10;76.30;;;;;;5092355;28;20222;-77
2021/03/09 08:02:49;;;;;;;38.50;35.40;;;3.30;76.20;;;;;;5092375;28;20226;-77
2021/03/09 08:05:19;;;;;;;41.58;38.15;;;3.50;75.90;;;;;;5092704;28;20191;-77
2021/03/09 08:07:51;;;;;;;38.45;35.35;;;3.60;75.30;;;;;;5095770;28;20230;-77
2021/03/09 08:10:45;;;;;;;39.17;35.88;;;3.80;75.00;;;;;;5096277;28;20235;-77
2021/03/09 08:13:26;;;;;;;38.78;35.53;;;3.90;74.10;;;;;;5096248;28;20197;-77
2021/03/09 08:16:31;;;;;;;39.08;35.85;;;3.90;73.90;;;;;;5096044;28;20206;-77
2021/03/09 08:19:07;;;;;;;39.88;36.78;;;4.00;74.10;;;;;;5096091;28;20300;-77
2021/03/09 08:21:53;;;;;;;39.35;36.33;;;4.30;73.70;;;;;;5096138;28;20560;-77
2021/03/09 08:24:21;;;;;;;42.13;38.38;;;4.40;72.60;;;;;;5096102;28;20215;-77
2021/03/09 08:26:49;;;;;;;41.72;38.53;;;4.50;72.60;;;;;;5095725;28;20202;-77
2021/03/09 08:29:37;;;;;;;42.97;39.58;;;4.60;72.50;;;;;;5096009;28;20215;-77
2021/03/09 08:32:31;;;;;;;43.78;39.72;;;4.80;71.90;;;;;;5095996;28;20202;-77
2021/03/09 08:35:38;;;;;;;42.13;38.40;;;5.00;71.00;;;;;;5095966;28;20197;-77
2021/03/09 08:38:23;;;;;;;39.78;36.70;;;5.00;71.00;;;;;;5095871;28;20203;-77
2021/03/09 08:41:13;;;;;;;44.38;40.72;;;5.10;70.80;;;;;;5095757;28;20197;-77
2021/03/09 08:43:43;;;;;;;42.50;38.97;;;5.40;69.90;;;;;;5095310;28;20215;-77
2021/03/09 08:46:11;;;;;;;41.22;37.75;;;5.40;69.50;;;;;;5095556;28;20662;-77
2021/03/09 08:48:54;;;;;;;43.03;39.50;;;5.50;69.40;;;;;;5095365;28;20222;-77
2021/03/09 08:51:49;;;;;;;42.92;39.03;;;5.70;69.10;;;;;;5095715;28;20228;-77
2021/03/09 08:54:38;;;;;;;41.65;37.95;;;5.80;68.80;;;;;;5095769;28;20601;-77
2021/03/09 08:57:12;;;;;;;43.47;39.72;;;5.90;68.80;;;;;;5095683;28;20227;-77
2021/03/09 08:59:40;;;;;;;41.20;37.80;;;6.10;69.00;;;;;;5096265;28;20213;-77
2021/03/09 09:02:13;;;;;;;45.72;41.17;;;6.30;68.60;;;;;;5096144;28;20206;-77
2021/03/09 09:04:41;;;;;;;43.22;39.53;;;6.40;69.40;;;;;;5095482;28;20223;-77
2021/03/09 09:07:19;;;;;;;42.80;39.10;;;6.50;71.00;;;;;;5095256;28;20199;-77
2021/03/09 09:09:46;;;;;;;43.25;39.58;;;6.60;72.50;;;;;;5095456;28;20222;-77
2021/03/09 09:12:32;;;;;;;43.80;39.95;;;6.70;72.40;;;;;;5095427;28;20197;-77
2021/03/09 09:15:11;;;;;;;45.63;41.47;;;6.90;72.30;;;;;;5095353;28;20202;-77
2021/03/09 09:17:39;;;;;;;43.22;39.30;;;7.20;72.70;;;;;;5094488;28;20199;-77
2021/03/09 09:20:08;;;;;;;44.70;40.83;;;7.50;69.40;;;;;;5095303;28;20219;-77
2021/03/09 09:22:35;;;;;;;44.63;40.80;;;7.60;68.40;;;;;;5095068;28;20294;-77
2021/03/09 09:25:04;;;;;;;42.28;38.55;;;7.70;70.20;;;;;;5095019;28;20218;-78
2021/03/09 09:27:38;;;;;;;44.67;40.38;;;7.80;68.50;;;;;;5094866;28;20329;-76
2021/03/09 09:30:07;;;;;;;43.13;39.50;;;7.90;67.00;;;;;;5094892;28;20301;-76
2021/03/09 09:32:50;;;;;;;44.33;40.30;;;8.00;68.90;;;;;;5094857;28;20227;-76
2021/03/09 09:35:18;;;;;;;42.22;38.55;;;7.80;64.30;;;;;;5094853;28;20223;-76
2021/03/09 09:37:47;;;;;;;42.05;38.83;;;7.90;63.90;;;;;;5094597;28;20679;-77
2021/03/09 09:40:15;;;;;;;41.83;38.25;;;8.00;62.90;;;;;;5094494;28;20697;-77
2021/03/09 09:42:42;;;;;;;41.55;38.05;;;8.10;62.40;;;;;;5094390;28;20195;-76
2021/03/09 09:45:11;;;;;;;43.72;39.47;;;8.20;64.40;;;;;;5094458;28;20223;-76
2021/03/09 09:47:37;;;;;;;42.88;39.38;;;8.30;64.00;;;;;;5094210;28;20218;-76
2021/03/09 09:50:05;;;;;;;42.08;38.75;;;8.30;62.20;;;;;;5094277;28;20302;-77
2021/03/09 09:52:31;;;;;;;41.88;38.35;;;8.30;61.70;;;;;;5094422;28;20668;-76
2021/03/09 09:54:58;;;;;;;41.40;37.63;;;8.20;61.50;;;;;;5094308;28;20278;-76
2021/03/09 09:57:25;;;;;;;42.63;39.13;;;8.20;61.50;;;;;;5094104;28;20572;-76
2021/03/09 09:59:51;;;;;;;43.42;39.63;;;8.30;61.50;;;;;;5094196;28;20346;-76
2021/03/09 10:02:20;;;;;;;42.67;39.05;;;8.40;63.60;;;;;;5094059;28;20195;-76
2021/03/09 10:04:47;;;;;;;41.20;37.90;;;8.40;62.50;;;;;;5094089;28;20215;-76
2021/03/09 10:07:14;;;;;;;43.63;39.75;;;8.40;62.40;;;;;;5093856;28;20293;-76
2021/03/09 10:09:41;;;;;;;42.70;39.00;;;8.50;65.70;;;;;;5094001;28;20223;-76
2021/03/09 10:12:09;;;;;;;42.75;39.22;;;8.50;62.00;;;;;;5094005;28;20747;-76
2021/03/09 10:14:51;;;;;;;43.03;39.20;;;8.70;61.00;;;;;;5093985;28;20198;-76
2021/03/09 10:17:18;;;;;;;43.03;39.65;;;8.90;60.60;;;;;;5093700;28;20196;-77
2021/03/09 10:19:44;;;;;;;42.95;39.30;;;9.00;59.50;;;;;;5093883;28;20224;-76
2021/03/09 10:22:17;;;;;;;40.65;37.35;;;8.90;59.00;;;;;;5093832;28;20202;-76
2021/03/09 10:24:44;;;;;;;43.35;39.75;;;8.80;61.70;;;;;;5093824;28;20215;-77
2021/03/09 10:27:15;;;;;;;42.13;38.72;;;9.00;61.70;;;;;;5093551;28;20281;-76
2021/03/09 10:29:41;;;;;;;42.17;38.63;;;9.20;62.20;;;;;;5093465;28;20218;-76
2021/03/09 10:32:14;;;;;;;43.45;39.55;;;9.30;59.70;;;;;;5093611;28;20628;-77
2021/03/09 10:34:41;;;;;;;40.55;37.33;;;9.30;61.60;;;;;;5093594;28;20199;-77
2021/03/09 10:37:09;;;;;;;43.75;39.30;;;9.30;58.80;;;;;;5093378;28;20755;-76
2021/03/09 10:39:37;;;;;;;40.97;37.50;;;9.40;58.70;;;;;;5093311;28;20817;-76
2021/03/09 10:42:27;;;;;;;40.35;37.05;;;9.80;58.10;;;;;;5093324;28;20449;-76
2021/03/09 10:44:54;;;;;;;38.90;35.80;;;10.10;56.50;;;;;;5093393;28;20240;-77
2021/03/09 10:47:20;;;;;;;40.27;37.27;;;9.80;57.10;;;;;;5093055;28;20501;-76
2021/03/09 10:49:47;;;;;;;40.13;36.93;;;10.00;56.20;;;;;;5093213;28;20630;-76
2021/03/09 10:52:13;;;;;;;40.37;36.87;;;9.80;58.60;;;;;;5093268;28;20445;-77
2021/03/09 10:54:40;;;;;;;41.97;38.27;;;9.90;60.20;;;;;;5093231;28;20441;-77
2021/03/09 10:57:08;;;;;;;39.37;36.40;;;10.00;56.90;;;;;;5092897;28;20846;-77
2021/03/09 10:59:35;;;;;;;40.20;37.00;;;10.30;55.80;;;;;;5093145;28;20834;-77
2021/03/09 11:02:02;;;;;;;39.37;36.30;;;10.20;55.50;;;;;;5093198;28;20981;-77
2021/03/09 11:04:28;;;;;;;39.10;36.13;;;10.40;55.70;;;;;;5093060;28;20469;-77
2021/03/09 11:06:54;;;;;;;39.60;36.40;;;10.40;56.40;;;;;;5092845;28;20450;-76
2021/03/09 11:09:21;;;;;;;41.20;37.77;;;10.70;55.80;;;;;;5092935;28;20476;-76
2021/03/09 11:11:47;;;;;;;38.63;35.63;;;10.90;54.30;;;;;;5092844;28;20939;-77
2021/03/09 11:14:13;;;;;;;37.60;34.63;;;10.90;58.00;;;;;;5093151;28;20452;-77
2021/03/09 11:16:41;;;;;;;38.10;35.10;;;10.90;53.30;;;;;;5092762;28;20548;-76
2021/03/09 11:19:07;;;;;;;38.00;34.87;;;10.90;53.00;;;;;;5092945;28;20873;-76
2021/03/09 11:21:33;;;;;;;39.23;36.13;;;10.60;53.30;;;;;;5092703;28;20804;-76
2021/03/09 11:24:00;;;;;;;38.00;34.90;;;10.40;54.00;;;;;;5092602;28;20481;-76
2021/03/09 11:26:29;;;;;;;36.10;33.40;;;10.50;54.10;;;;;;5092508;28;20445;-76
2021/03/09 11:28:55;;;;;;;35.90;32.97;;;10.30;54.40;;;;;;5092948;28;20508;-77
2021/03/09 11:31:22;;;;;;;35.73;33.13;;;10.10;54.00;;;;;;5092796;28;20451;-76
2021/03/09 11:33:50;;;;;;;35.40;32.70;;;10.30;53.90;;;;;;5092650;28;21007;-77
2021/03/09 11:36:17;;;;;;;38.00;35.23;;;10.60;52.40;;;;;;5092545;28;20819;-76
2021/03/09 11:38:45;;;;;;;36.63;33.60;;;10.60;52.10;;;;;;5094135;28;20473;-76
2021/03/09 11:41:12;;;;;;;37.50;34.43;;;10.50;52.70;;;;;;5093560;28;20522;-76
2021/03/09 11:43:39;;;;;;;39.13;36.03;;;10.50;54.30;;;;;;5096398;28;20473;-77
2021/03/09 11:46:05;;;;;;;37.80;34.90;;;10.60;53.20;;;;;;5096679;28;20448;-77
2021/03/09 11:48:32;;;;;;;38.80;35.70;;;10.20;53.90;;;;;;5096500;28;20501;-77
2021/03/09 11:50:59;;;;;;;37.20;34.50;;;10.40;53.90;;;;;;5096673;28;20455;-77
2021/03/09 11:53:26;;;;;;;37.43;34.67;;;10.40;53.00;;;;;;5096626;28;20814;-77
2021/03/09 11:55:52;;;;;;;37.92;34.92;;;10.40;52.80;;;;;;5096378;28;21007;-77
2021/03/09 11:58:19;;;;;;;37.10;34.43;;;10.20;52.70;;;;;;5096600;28;20225;-77
2021/03/09 12:00:45;;;;;;;35.80;33.20;;;10.10;52.70;;;;;;5096527;28;20815;-77
2021/03/09 12:03:12;;;;;;;37.10;34.40;;;10.10;53.20;;;;;;5096288;28;20463;-77
2021/03/09 12:05:38;;;;;;;36.40;33.77;;;10.00;53.80;;;;;;5096302;28;20455;-77
2021/03/09 12:08:06;;;;;;;34.27;31.90;;;10.00;53.80;;;;;;5096510;28;20473;-76
2021/03/09 12:10:32;;;;;;;35.77;32.67;;;10.20;54.00;;;;;;5096488;28;20445;-76
2021/03/09 12:12:59;;;;;;;34.30;31.80;;;10.20;52.50;;;;;;5096360;28;20536;-76
2021/03/09 12:15:25;;;;;;;34.93;32.53;;;10.40;51.20;;;;;;5096284;28;20441;-77
2021/03/09 12:17:51;;;;;;;34.10;31.77;;;10.10;51.50;;;;;;5096025;28;20445;-77
2021/03/09 12:20:19;;;;;;;36.80;33.73;;;10.10;52.30;;;;;;5096050;28;20825;-76
2021/03/09 12:22:45;;;;;;;35.83;33.03;;;10.00;53.00;;;;;;5096127;28;20453;-77
2021/03/09 12:25:13;;;;;;;35.10;32.37;;;10.20;53.30;;;;;;5096071;28;20481;-76
2021/03/09 12:27:40;;;;;;;35.38;32.90;;;10.40;52.10;;;;;;5095768;28;20943;-77
2021/03/09 12:30:09;;;;;;;35.13;32.63;;;10.20;53.50;;;;;;5095829;28;20245;-77
2021/03/09 12:32:36;;;;;;;35.13;32.47;;;10.00;53.30;;;;;;5095848;28;20449;-77
2021/03/09 12:35:03;;;;;;;35.67;33.17;;;10.20;52.30;;;;;;5095792;28;20457;-77
2021/03/09 12:37:29;;;;;;;35.93;33.27;;;10.50;52.00;;;;;;5095605;28;20498;-77
2021/03/09 12:39:56;;;;;;;35.17;32.63;;;10.50;51.60;;;;;;5095918;28;20472;-77
2021/03/09 12:42:23;;;;;;;34.63;32.23;;;10.50;51.40;;;;;;5095615;28;20585;-77